Time;durP1;ratioP1;P1;durP2;ratioP2;P2;SDS_P1;SDS_P2;PMS_P1;PMS_P2;Temp;Humidity;BMP_temperature;BMP_pressure;BME280_temperature;BME280_humidity;BME280_pressure;Samples;Min_cycle;Max_cycle;Signal;HPM_P1;HPM_P2
2021/12/19 00:00:33;;;;;;;;;;;22.10;55.60;;;;;;4934333;29;19967;-76
2021/12/19 00:12:38;;;;;;;;;;;22.20;55.50;;;;;;4856259;29;20049;-75
2021/12/19 00:15:16;;;;;;;;;;;22.20;55.40;;;;;;4839216;29;19919;-75
2021/12/19 00:17:42;;;;;;;;;;;22.10;55.90;;;;;;4930816;29;19915;-74
2021/12/19 00:20:08;;;;;;;;;;;22.10;55.30;;;;;;4934886;29;19911;-76
2021/12/19 00:22:37;;;;;;;;;;;22.10;55.50;;;;;;4920656;29;19921;-75
2021/12/19 00:25:04;;;;;;;;;;;22.10;55.40;;;;;;4937453;29;19915;-74
2021/12/19 00:27:29;;;;;;;;;;;22.10;55.50;;;;;;4937754;29;20372;-75
2021/12/19 00:29:55;;;;;;;;;;;22.10;55.50;;;;;;4937686;29;19943;-75
2021/12/19 00:32:20;;;;;;;;;;;22.20;55.60;;;;;;4920686;29;19918;-75
2021/12/19 00:34:50;;;;;;;;;;;22.10;55.60;;;;;;4937201;29;19939;-75
2021/12/19 00:37:19;;;;;;;;;;;22.10;55.40;;;;;;4937557;29;19914;-75
2021/12/19 00:39:45;;;;;;;;;;;22.10;55.60;;;;;;4936296;29;19911;-75
2021/12/19 00:42:11;;;;;;;;;;;22.10;55.50;;;;;;4937395;29;20025;-75
2021/12/19 00:44:38;;;;;;;;;;;22.10;55.60;;;;;;4937115;29;20427;-75
2021/12/19 00:47:07;;;;;;;;;;;22.10;55.50;;;;;;4937629;29;19914;-75
2021/12/19 00:49:34;;;;;;;;;;;22.10;55.70;;;;;;4937292;29;19993;-75
2021/12/19 00:52:00;;;;;;;;;;;22.10;55.60;;;;;;4935847;29;19910;-75
2021/12/19 00:54:25;;;;;;;;;;;22.10;55.70;;;;;;4936926;29;19911;-75
2021/12/19 00:56:51;;;;;;;;;;;22.10;55.60;;;;;;4920194;29;19914;-76
2021/12/19 00:59:17;;;;;;;;;;;22.10;55.50;;;;;;4937120;29;20002;-75
2021/12/19 01:01:43;;;;;;;;;;;22.10;55.70;;;;;;4920018;29;20423;-76
2021/12/19 01:04:11;;;;;;;;;;;22.10;55.40;;;;;;4919854;29;20005;-75
2021/12/19 01:06:37;;;;;;;;;;;22.10;55.50;;;;;;4936958;29;20401;-75
2021/12/19 01:09:03;;;;;;;;;;;22.10;55.40;;;;;;4937109;29;20394;-75
2021/12/19 01:11:29;;;;;;;;;;;22.10;55.50;;;;;;4936864;29;20296;-75
2021/12/19 01:13:56;;;;;;;;;;;22.10;55.50;;;;;;4936853;29;19911;-75
2021/12/19 01:16:21;;;;;;;;;;;22.10;55.40;;;;;;4919678;29;19910;-76
2021/12/19 01:18:48;;;;;;;;;;;22.10;55.40;;;;;;4919619;29;19932;-75
2021/12/19 01:21:14;;;;;;;;;;;22.10;55.30;;;;;;4936703;29;20646;-75
2021/12/19 01:23:40;;;;;;;;;;;22.10;55.30;;;;;;4936834;29;19956;-75
2021/12/19 01:26:05;;;;;;;;;;;22.10;55.30;;;;;;4936336;29;19914;-75
2021/12/19 01:28:31;;;;;;;;;;;22.10;55.10;;;;;;4936567;29;19946;-75
2021/12/19 01:30:57;;;;;;;;;;;22.20;55.10;;;;;;4936486;29;19954;-75
2021/12/19 01:33:23;;;;;;;;;;;22.20;55.20;;;;;;4936233;29;19915;-75
2021/12/19 01:35:49;;;;;;;;;;;22.10;55.10;;;;;;4919553;29;20017;-75
2021/12/19 01:38:14;;;;;;;;;;;22.10;55.20;;;;;;4936425;29;19911;-75
2021/12/19 01:40:40;;;;;;;;;;;22.10;55.20;;;;;;4936481;29;20335;-75
2021/12/19 01:43:05;;;;;;;;;;;22.10;55.30;;;;;;4936389;29;19911;-75
2021/12/19 01:45:36;;;;;;;;;;;22.10;55.30;;;;;;4936023;29;19962;-75
2021/12/19 01:48:04;;;;;;;;;;;22.10;55.30;;;;;;4935062;29;19983;-76
2021/12/19 01:50:31;;;;;;;;;;;22.10;55.30;;;;;;4936234;29;19918;-76
2021/12/19 01:52:57;;;;;;;;;;;22.10;55.30;;;;;;4936088;29;19910;-75
2021/12/19 01:55:23;;;;;;;;;;;22.10;55.30;;;;;;4935827;29;19918;-76
2021/12/19 01:57:49;;;;;;;;;;;22.10;55.30;;;;;;4936171;29;19919;-76
2021/12/19 02:00:22;;;;;;;;;;;22.10;55.20;;;;;;4936022;29;19919;-76
2021/12/19 02:02:48;;;;;;;;;;;22.10;55.30;;;;;;4919026;29;20004;-76
2021/12/19 02:05:13;;;;;;;;;;;22.10;55.30;;;;;;4935720;29;20014;-77
2021/12/19 02:07:43;;;;;;;;;;;22.10;55.30;;;;;;4935897;29;19917;-76
2021/12/19 02:10:09;;;;;;;;;;;22.10;55.20;;;;;;4935768;29;19915;-76
2021/12/19 02:12:35;;;;;;;;;;;22.10;55.40;;;;;;4935923;29;19911;-77
2021/12/19 02:15:01;;;;;;;;;;;22.10;55.30;;;;;;4935402;29;19914;-76
2021/12/19 02:17:26;;;;;;;;;;;22.10;55.30;;;;;;4934578;29;19911;-76
2021/12/19 02:19:55;;;;;;;;;;;22.10;55.40;;;;;;4935639;29;19918;-76
2021/12/19 02:22:21;;;;;;;;;;;22.10;55.30;;;;;;4935620;29;19922;-76
2021/12/19 02:24:47;;;;;;;;;;;22.10;55.20;;;;;;4935198;29;19915;-76
2021/12/19 02:27:12;;;;;;;;;;;22.10;55.50;;;;;;4935713;29;19910;-73
2021/12/19 02:29:38;;;;;;;;;;;22.10;55.30;;;;;;4935337;29;19914;-74
2021/12/19 02:32:05;;;;;;;;;;;22.10;55.50;;;;;;4935388;29;20278;-74
2021/12/19 02:34:37;;;;;;;;;;;22.10;55.30;;;;;;4918167;29;19910;-74
2021/12/19 02:37:12;;;;;;;;;;;22.10;55.20;;;;;;4935366;29;19911;-75
2021/12/19 02:40:06;;;;;;;;;;;22.10;55.20;;;;;;4935281;29;19941;-74
2021/12/19 02:48:13;;;;;;;;;;;22.10;54.80;;;;;;4918348;29;19918;-74
2021/12/19 02:50:45;;;;;;;;;;;22.10;54.80;;;;;;4935167;29;19946;-74
2021/12/19 02:53:10;;;;;;;;;;;22.10;54.90;;;;;;4934969;29;19966;-74
2021/12/19 02:55:36;;;;;;;;;;;22.10;55.00;;;;;;4934648;29;19911;-74
2021/12/19 02:58:02;;;;;;;;;;;22.10;55.10;;;;;;4935071;29;19911;-74
2021/12/19 03:00:28;;;;;;;;;;;22.10;55.00;;;;;;4935401;29;19911;-75
2021/12/19 03:02:54;;;;;;;;;;;22.10;55.10;;;;;;4934886;29;19997;-74
2021/12/19 03:05:19;;;;;;;;;;;22.10;55.20;;;;;;4934443;29;19914;-75
2021/12/19 03:07:45;;;;;;;;;;;22.10;55.10;;;;;;4935260;29;20399;-74
2021/12/19 03:18:14;;;;;;;;;;;22.10;55.20;;;;;;4934616;29;19933;-75
2021/12/19 03:20:42;;;;;;;;;;;22.10;55.20;;;;;;4934767;29;19914;-75
2021/12/19 03:23:08;;;;;;;;;;;22.10;55.20;;;;;;4934749;29;19953;-75
2021/12/19 03:25:34;;;;;;;;;;;22.10;55.20;;;;;;4934234;29;20340;-75
2021/12/19 03:28:01;;;;;;;;;;;22.10;55.20;;;;;;4934672;29;20001;-75
2021/12/19 03:30:27;;;;;;;;;;;22.10;55.20;;;;;;4934550;29;20283;-74
2021/12/19 03:32:53;;;;;;;;;;;22.10;55.20;;;;;;4917825;29;20283;-75
2021/12/19 03:35:19;;;;;;;;;;;22.10;55.20;;;;;;4934146;29;19914;-75
2021/12/19 03:37:45;;;;;;;;;;;22.10;55.20;;;;;;4934538;29;19958;-74
2021/12/19 03:40:13;;;;;;;;;;;22.10;55.20;;;;;;4934516;29;19911;-75
2021/12/19 03:42:40;;;;;;;;;;;22.10;55.30;;;;;;4934379;29;19922;-75
2021/12/19 03:45:06;;;;;;;;;;;22.10;55.20;;;;;;4934003;29;19915;-75
2021/12/19 03:47:32;;;;;;;;;;;22.10;55.10;;;;;;4934544;29;19954;-75
2021/12/19 03:49:57;;;;;;;;;;;22.10;55.10;;;;;;4934529;29;20026;-74
2021/12/19 03:52:23;;;;;;;;;;;22.10;55.20;;;;;;4917466;29;19918;-74
2021/12/19 03:54:49;;;;;;;;;;;22.10;55.20;;;;;;4934160;29;19915;-75
2021/12/19 03:57:14;;;;;;;;;;;22.10;55.20;;;;;;4921256;29;19918;-74
2021/12/19 03:59:42;;;;;;;;;;;22.10;55.10;;;;;;4921056;29;19918;-75
2021/12/19 04:02:07;;;;;;;;;;;22.10;55.10;;;;;;4938143;29;19910;-75
2021/12/19 04:04:37;;;;;;;;;;;22.20;55.20;;;;;;4937713;29;20343;-75
2021/12/19 04:07:03;;;;;;;;;;;22.10;55.00;;;;;;4937909;29;20299;-75
2021/12/19 04:09:29;;;;;;;;;;;22.10;55.10;;;;;;4921233;29;19975;-74
2021/12/19 04:11:55;;;;;;;;;;;22.10;55.00;;;;;;4921289;29;19910;-75
2021/12/19 04:14:22;;;;;;;;;;;22.20;55.80;;;;;;4920567;29;20407;-74
2021/12/19 04:16:47;;;;;;;;;;;22.10;55.10;;;;;;4938088;29;20332;-74
2021/12/19 04:19:13;;;;;;;;;;;22.10;55.10;;;;;;4920785;29;19969;-74
2021/12/19 04:21:39;;;;;;;;;;;22.10;55.20;;;;;;4937783;29;20273;-75
2021/12/19 04:24:05;;;;;;;;;;;22.10;55.20;;;;;;4920732;29;19911;-74
2021/12/19 04:26:30;;;;;;;;;;;22.10;55.20;;;;;;4937351;29;20351;-74
2021/12/19 04:28:56;;;;;;;;;;;22.10;55.20;;;;;;4920767;29;20352;-75
2021/12/19 04:31:22;;;;;;;;;;;22.10;55.30;;;;;;4920529;29;19911;-75
2021/12/19 04:33:48;;;;;;;;;;;22.10;55.20;;;;;;4937654;29;20051;-74
2021/12/19 04:36:21;;;;;;;;;;;22.10;55.20;;;;;;4937262;29;19911;-74
2021/12/19 04:39:38;;;;;;;;;;;22.10;55.30;;;;;;4937502;29;20287;-74
2021/12/19 04:55:13;;;;;;;;;;;22.10;55.40;;;;;;4936827;29;19911;-75
2021/12/19 04:57:51;;;;;;;;;;;22.10;55.20;;;;;;4937213;29;20376;-74
2021/12/19 05:00:32;;;;;;;;;;;22.00;55.20;;;;;;4937223;29;19918;-74
2021/12/19 05:03:02;;;;;;;;;;;22.10;55.20;;;;;;4937222;29;19910;-74
2021/12/19 05:16:21;;;;;;;;;;;22.10;55.20;;;;;;4936807;29;19918;-74
2021/12/19 05:18:49;;;;;;;;;;;22.10;55.10;;;;;;4920014;29;19918;-74
2021/12/19 05:21:23;;;;;;;;;;;22.10;55.00;;;;;;4919885;29;20336;-74
2021/12/19 05:26:14;;;;;;;;;;;22.10;55.10;;;;;;4936259;29;20403;-74
2021/12/19 05:28:40;;;;;;;;;;;22.10;54.90;;;;;;4936614;29;19994;-74
2021/12/19 05:31:06;;;;;;;;;;;22.10;55.00;;;;;;4919887;29;20406;-75
2021/12/19 05:33:32;;;;;;;;;;;22.10;55.10;;;;;;4936655;29;19911;-75
2021/12/19 05:44:11;;;;;;;;;;;22.10;55.10;;;;;;4936289;29;19911;-74
2021/12/19 05:45:12;;;;;;;;;;;22.10;55.20;;;;;;4935888;29;19910;-75
2021/12/19 05:47:23;;;;;;;;;;;22.10;55.20;;;;;;4934869;29;19910;-75
2021/12/19 05:49:49;;;;;;;;;;;22.10;55.20;;;;;;4936252;29;19918;-75
2021/12/19 05:52:15;;;;;;;;;;;22.10;55.20;;;;;;4936029;29;19910;-75
2021/12/19 05:54:40;;;;;;;;;;;22.10;55.30;;;;;;4935869;29;20375;-74
2021/12/19 05:57:06;;;;;;;;;;;22.10;55.20;;;;;;4936076;29;19917;-75
2021/12/19 05:59:32;;;;;;;;;;;22.10;55.30;;;;;;4936170;29;19911;-74
2021/12/19 06:01:57;;;;;;;;;;;22.10;55.30;;;;;;4903146;29;20010;-74
2021/12/19 06:04:23;;;;;;;;;;;22.10;55.20;;;;;;4935888;29;19910;-75
2021/12/19 06:06:51;;;;;;;;;;;22.10;55.20;;;;;;4935819;29;20371;-75
2021/12/19 06:09:16;;;;;;;;;;;22.10;55.20;;;;;;4934701;29;19911;-74
2021/12/19 06:11:42;;;;;;;;;;;22.10;55.20;;;;;;4935680;29;19917;-75
2021/12/19 06:14:08;;;;;;;;;;;22.00;55.20;;;;;;4918950;29;19919;-75
2021/12/19 06:16:33;;;;;;;;;;;22.00;55.20;;;;;;4935471;29;19917;-74
2021/12/19 06:18:59;;;;;;;;;;;22.00;55.20;;;;;;4935000;29;19934;-74
2021/12/19 06:24:01;;;;;;;;;;;22.00;55.20;;;;;;4984874;28;19976;-79
2021/12/19 06:26:27;;;;;;;;;;;22.00;55.30;;;;;;4988123;28;19918;-79
2021/12/19 06:28:52;;;;;;;;;;;22.10;55.20;;;;;;4956755;28;20486;-77
2021/12/19 06:31:18;;;;;;;;;;;22.00;55.30;;;;;;4972832;28;20191;-76
2021/12/19 06:33:44;;;;;;;;;;;22.10;55.20;;;;;;4973865;28;19953;-76
2021/12/19 06:36:10;;;;;;;;;;;22.10;55.20;;;;;;4955937;28;19936;-77
2021/12/19 06:38:35;;;;;;;;;;;22.00;55.00;;;;;;4972790;28;19997;-76
2021/12/19 06:41:01;;;;;;;;;;;22.10;55.10;;;;;;4973664;28;19914;-76
2021/12/19 06:43:28;;;;;;;;;;;22.10;55.10;;;;;;4973770;28;19910;-76
2021/12/19 06:45:56;;;;;;;;;;;22.10;55.70;;;;;;4972110;28;19961;-77
2021/12/19 06:48:24;;;;;;;;;;;22.10;55.00;;;;;;4972516;28;19910;-77
2021/12/19 06:50:50;;;;;;;;;;;22.10;55.00;;;;;;4974058;28;19941;-77
2021/12/19 06:53:15;;;;;;;;;;;22.10;55.00;;;;;;4973572;28;19954;-77
2021/12/19 06:55:41;;;;;;;;;;;22.10;55.10;;;;;;4972132;28;20009;-77
2021/12/19 06:58:07;;;;;;;;;;;22.10;55.00;;;;;;4973467;28;20437;-76
2021/12/19 07:00:36;;;;;;;;;;;22.00;55.00;;;;;;4973401;28;19909;-77
2021/12/19 07:03:03;;;;;;;;;;;22.00;55.00;;;;;;4973265;28;20022;-77
2021/12/19 07:05:28;;;;;;;;;;;22.00;55.00;;;;;;4973161;28;19957;-77
2021/12/19 07:07:54;;;;;;;;;;;22.00;55.10;;;;;;4973387;28;20385;-77
2021/12/19 07:10:20;;;;;;;;;;;22.00;55.10;;;;;;4972157;28;19910;-79
2021/12/19 07:12:45;;;;;;;;;;;22.10;55.10;;;;;;4973170;28;19952;-79
2021/12/19 07:15:14;;;;;;;;;;;22.00;55.10;;;;;;4971619;28;19918;-79
2021/12/19 07:17:40;;;;;;;;;;;22.00;55.20;;;;;;4972186;28;19910;-79
2021/12/19 07:20:06;;;;;;;;;;;22.10;55.20;;;;;;4971945;28;19996;-79
2021/12/19 07:22:32;;;;;;;;;;;22.00;55.10;;;;;;4971829;28;19914;-79
2021/12/19 07:24:58;;;;;;;;;;;22.00;55.10;;;;;;4971466;28;20370;-79
2021/12/19 07:27:23;;;;;;;;;;;22.10;55.20;;;;;;4973193;28;19910;-79
2021/12/19 07:29:49;;;;;;;;;;;22.00;55.10;;;;;;4955819;28;19910;-79
2021/12/19 07:32:15;;;;;;;;;;;22.00;55.20;;;;;;4971835;28;20374;-79
2021/12/19 07:34:42;;;;;;;;;;;22.00;55.20;;;;;;4971847;28;19910;-79
2021/12/19 07:37:08;;;;;;;;;;;22.00;55.20;;;;;;4972785;28;19964;-77
2021/12/19 07:42:03;;;;;;;;;;;22.00;55.20;;;;;;4971844;28;19954;-79
2021/12/19 07:44:29;;;;;;;;;;;22.00;55.20;;;;;;4971515;28;19914;-78
2021/12/19 07:46:55;;;;;;;;;;;22.00;55.20;;;;;;4973069;28;19941;-78
2021/12/19 07:49:20;;;;;;;;;;;22.00;55.10;;;;;;4972862;28;19917;-79
2021/12/19 07:51:46;;;;;;;;;;;22.00;55.10;;;;;;4971491;28;19917;-78
2021/12/19 07:54:11;;;;;;;;;;;22.00;55.00;;;;;;4971652;28;19914;-79
2021/12/19 07:56:37;;;;;;;;;;;22.10;54.90;;;;;;4971778;28;19917;-79
2021/12/19 07:59:03;;;;;;;;;;;22.10;54.90;;;;;;4971604;28;19997;-79
2021/12/19 08:01:29;;;;;;;;;;;22.10;54.90;;;;;;4972443;28;20283;-79
2021/12/19 08:03:54;;;;;;;;;;;22.10;54.80;;;;;;4972828;28;20458;-79
2021/12/19 08:06:20;;;;;;;;;;;22.10;54.70;;;;;;4972482;28;19921;-79
2021/12/19 08:08:51;;;;;;;;;;;22.10;54.80;;;;;;4972615;28;19910;-79
2021/12/19 08:14:01;;;;;;;;;;;22.10;54.80;;;;;;4972653;28;19917;-79
2021/12/19 08:16:27;;;;;;;;;;;22.10;54.90;;;;;;4972459;28;20021;-79
2021/12/19 08:18:52;;;;;;;;;;;22.10;54.90;;;;;;4971312;28;19910;-79
2021/12/19 08:21:19;;;;;;;;;;;22.00;54.90;;;;;;4971407;28;20020;-78
2021/12/19 08:23:47;;;;;;;;;;;22.10;55.00;;;;;;4971336;28;20457;-78
2021/12/19 08:26:13;;;;;;;;;;;22.10;55.00;;;;;;4954850;28;19914;-78
2021/12/19 08:28:39;;;;;;;;;;;22.10;55.00;;;;;;4971548;28;20000;-78
2021/12/19 08:31:05;;;;;;;;;;;22.10;55.00;;;;;;4972648;28;19910;-79
2021/12/19 08:33:31;;;;;;;;;;;22.00;54.80;;;;;;4971175;28;19910;-79
2021/12/19 08:35:57;;;;;;;;;;;22.00;55.00;;;;;;4971057;28;19961;-78
2021/12/19 08:38:23;;;;;;;;;;;22.00;55.00;;;;;;4971107;28;19917;-79
2021/12/19 08:40:50;;;;;;;;;;;22.00;55.00;;;;;;4972654;28;19957;-79
2021/12/19 08:43:15;;;;;;;;;;;22.00;55.00;;;;;;4975709;28;19916;-79
2021/12/19 08:45:41;;;;;;;;;;;22.00;55.00;;;;;;4958351;28;19918;-78
2021/12/19 08:48:07;;;;;;;;;;;22.00;55.00;;;;;;4974573;28;20412;-78
2021/12/19 08:50:33;;;;;;;;;;;22.00;55.00;;;;;;4976103;28;19910;-78
2021/12/19 08:52:59;;;;;;;;;;;22.00;54.90;;;;;;4975708;28;19910;-79
2021/12/19 08:55:24;;;;;;;;;;;22.00;55.00;;;;;;4975446;28;20401;-78
2021/12/19 08:57:50;;;;;;;;;;;22.00;54.90;;;;;;4974456;28;19978;-78
2021/12/19 09:00:18;;;;;;;;;;;22.00;55.00;;;;;;4974612;28;19910;-79
2021/12/19 09:02:46;;;;;;;;;;;22.00;55.10;;;;;;4958621;28;19910;-78
2021/12/19 09:05:12;;;;;;;;;;;22.00;55.10;;;;;;4975171;28;19921;-78
2021/12/19 09:07:38;;;;;;;;;;;22.00;55.10;;;;;;4974187;28;19988;-78
2021/12/19 09:10:04;;;;;;;;;;;22.00;54.90;;;;;;4974490;28;20362;-78
2021/12/19 09:12:29;;;;;;;;;;;22.00;54.90;;;;;;4974358;28;20377;-79
2021/12/19 09:14:55;;;;;;;;;;;22.00;54.90;;;;;;4975070;28;19961;-78
2021/12/19 09:17:21;;;;;;;;;;;22.00;54.70;;;;;;4975504;28;19917;-79
2021/12/19 09:19:46;;;;;;;;;;;22.00;54.60;;;;;;4975378;28;19910;-78
2021/12/19 09:22:12;;;;;;;;;;;22.00;54.60;;;;;;4975067;28;19914;-78
2021/12/19 09:24:38;;;;;;;;;;;22.00;54.60;;;;;;4973751;28;19910;-78
2021/12/19 09:27:07;;;;;;;;;;;22.10;54.50;;;;;;4973878;28;19914;-77
2021/12/19 09:29:33;;;;;;;;;;;22.00;54.50;;;;;;4973962;28;19983;-77
2021/12/19 09:31:59;;;;;;;;;;;22.00;54.50;;;;;;4973804;28;19913;-77
2021/12/19 09:34:26;;;;;;;;;;;22.00;54.60;;;;;;4974824;28;19918;-77
2021/12/19 09:36:52;;;;;;;;;;;22.00;54.50;;;;;;4958009;28;20008;-77
2021/12/19 09:39:18;;;;;;;;;;;22.00;54.60;;;;;;4973611;28;20254;-77
2021/12/19 09:41:45;;;;;;;;;;;22.00;54.80;;;;;;4975219;28;19936;-77
2021/12/19 09:44:14;;;;;;;;;;;22.00;54.80;;;;;;4941695;28;20040;-78
2021/12/19 09:46:41;;;;;;;;;;;22.00;54.80;;;;;;4973668;28;20287;-78
2021/12/19 09:49:08;;;;;;;;;;;22.00;54.70;;;;;;4973800;28;19945;-77
2021/12/19 09:51:34;;;;;;;;;;;22.00;54.80;;;;;;4957588;28;19973;-78
2021/12/19 09:54:00;;;;;;;;;;;22.00;54.80;;;;;;4973352;28;20389;-78
2021/12/19 09:56:26;;;;;;;;;;;22.00;54.90;;;;;;4973115;28;19949;-77
2021/12/19 09:58:53;;;;;;;;;;;22.00;54.90;;;;;;4974655;28;19910;-78
2021/12/19 10:01:19;;;;;;;;;;;22.00;54.90;;;;;;4973398;28;19917;-78
2021/12/19 10:03:44;;;;;;;;;;;22.00;54.90;;;;;;4973072;28;19914;-78
2021/12/19 10:06:14;;;;;;;;;;;22.00;54.90;;;;;;4974015;28;19968;-78
2021/12/19 10:08:40;;;;;;;;;;;22.00;54.90;;;;;;4973567;28;19961;-77
2021/12/19 10:11:29;;;;;;;;;;;22.00;54.90;;;;;;4973268;28;19918;-76
2021/12/19 10:13:55;;;;;;;;;;;22.00;54.90;;;;;;4974442;28;19916;-76
2021/12/19 10:16:24;;;;;;;;;;;22.00;55.00;;;;;;4957106;28;20363;-76
2021/12/19 10:18:50;;;;;;;;;;;22.00;54.90;;;;;;4974184;28;20289;-77
2021/12/19 10:21:17;;;;;;;;;;;22.00;54.80;;;;;;4973934;28;20314;-77
2021/12/19 10:23:43;;;;;;;;;;;22.00;54.90;;;;;;4972781;28;20390;-77
2021/12/19 10:26:09;;;;;;;;;;;22.00;54.90;;;;;;4974007;28;19941;-77
2021/12/19 10:28:52;;;;;;;;;;;22.00;54.90;;;;;;4973134;28;20387;-77
2021/12/19 10:31:18;;;;;;;;;;;22.00;54.80;;;;;;4972658;28;20298;-77
2021/12/19 10:33:44;;;;;;;;;;;22.00;54.80;;;;;;4956616;28;19910;-77
2021/12/19 10:36:10;;;;;;;;;;;22.00;54.80;;;;;;4972479;28;19960;-79
2021/12/19 10:38:37;;;;;;;;;;;22.10;54.80;;;;;;4972748;28;19945;-79
2021/12/19 10:41:23;;;;;;;;;;;22.10;54.70;;;;;;4973806;28;19910;-79
2021/12/19 10:46:43;;;;;;;;;;;22.10;54.70;;;;;;4972181;28;19918;-77
2021/12/19 10:49:22;;;;;;;;;;;22.10;54.80;;;;;;4972500;28;19964;-77
2021/12/19 10:51:51;;;;;;;;;;;22.10;54.80;;;;;;4974006;28;20142;-79
2021/12/19 10:54:17;;;;;;;;;;;22.10;54.80;;;;;;4973237;28;20286;-79
2021/12/19 10:56:43;;;;;;;;;;;22.10;54.80;;;;;;4972432;28;19917;-79
2021/12/19 10:59:10;;;;;;;;;;;22.10;54.80;;;;;;4956429;28;20410;-79
2021/12/19 11:01:38;;;;;;;;;;;22.10;54.80;;;;;;4973499;28;19945;-79
2021/12/19 11:04:05;;;;;;;;;;;22.00;54.90;;;;;;4955949;28;19910;-78
2021/12/19 11:06:34;;;;;;;;;;;22.00;54.90;;;;;;4971926;28;19943;-78
2021/12/19 11:09:00;;;;;;;;;;;22.00;54.90;;;;;;4972014;28;19914;-78
2021/12/19 11:11:43;;;;;;;;;;;22.00;54.90;;;;;;4972293;28;19914;-79
2021/12/19 11:14:11;;;;;;;;;;;22.00;54.90;;;;;;4972274;28;19972;-79
2021/12/19 11:16:37;;;;;;;;;;;22.00;54.90;;;;;;4956168;28;19961;-79
2021/12/19 11:19:02;;;;;;;;;;;22.00;54.90;;;;;;4972218;28;20030;-78
2021/12/19 11:21:33;;;;;;;;;;;22.00;54.90;;;;;;4974008;28;19910;-78
2021/12/19 11:24:00;;;;;;;;;;;22.00;54.90;;;;;;4972798;28;20007;-79
2021/12/19 11:26:26;;;;;;;;;;;22.00;54.90;;;;;;4972435;28;19918;-78
2021/12/19 11:28:53;;;;;;;;;;;22.00;54.90;;;;;;4974620;28;19910;-78
2021/12/19 11:31:20;;;;;;;;;;;22.00;55.00;;;;;;4973409;28;20442;-78
2021/12/19 11:34:00;;;;;;;;;;;22.00;54.90;;;;;;4973941;28;20305;-78
2021/12/19 11:36:26;;;;;;;;;;;22.00;55.00;;;;;;4976432;28;19918;-78
2021/12/19 11:38:52;;;;;;;;;;;22.00;55.00;;;;;;4960660;28;19969;-78
2021/12/19 11:41:18;;;;;;;;;;;22.00;54.90;;;;;;4959987;28;19968;-79
2021/12/19 11:43:46;;;;;;;;;;;22.00;54.80;;;;;;4974379;28;19910;-79
2021/12/19 11:46:21;;;;;;;;;;;22.00;54.90;;;;;;4973068;28;19968;-79
2021/12/19 11:49:06;;;;;;;;;;;22.00;54.90;;;;;;4973109;28;19961;-79
2021/12/19 11:51:32;;;;;;;;;;;22.00;54.80;;;;;;4972935;28;19976;-79
2021/12/19 11:54:10;;;;;;;;;;;22.00;54.80;;;;;;4973144;28;20362;-79
2021/12/19 11:56:36;;;;;;;;;;;22.10;54.80;;;;;;4971730;28;19917;-79
2021/12/19 11:59:16;;;;;;;;;;;22.10;54.80;;;;;;4971399;28;19909;-79
2021/12/19 12:01:42;;;;;;;;;;;22.10;54.80;;;;;;4972948;28;20386;-79
2021/12/19 12:04:13;;;;;;;;;;;22.10;54.70;;;;;;4972676;28;19910;-79
2021/12/19 12:06:38;;;;;;;;;;;22.00;54.60;;;;;;4972675;28;19918;-79
2021/12/19 12:09:04;;;;;;;;;;;22.00;54.70;;;;;;4955793;28;20024;-79
2021/12/19 12:11:31;;;;;;;;;;;22.00;54.80;;;;;;4972606;28;19988;-79
2021/12/19 12:14:15;;;;;;;;;;;22.00;54.80;;;;;;4972675;28;19917;-79
2021/12/19 12:16:50;;;;;;;;;;;22.00;54.90;;;;;;4974125;28;20397;-79
2021/12/19 12:19:16;;;;;;;;;;;22.00;54.90;;;;;;4975052;28;19909;-78
2021/12/19 12:21:47;;;;;;;;;;;22.00;54.90;;;;;;4975160;28;20375;-80
2021/12/19 12:24:13;;;;;;;;;;;22.00;54.90;;;;;;4976243;28;19914;-79
2021/12/19 12:27:00;;;;;;;;;;;22.00;54.90;;;;;;4974958;28;20327;-79
2021/12/19 12:29:25;;;;;;;;;;;22.00;54.90;;;;;;4975283;28;20342;-78
2021/12/19 12:31:52;;;;;;;;;;;22.00;54.90;;;;;;4976143;28;19913;-79
2021/12/19 12:34:18;;;;;;;;;;;22.00;54.90;;;;;;4958909;28;20020;-79
2021/12/19 12:36:44;;;;;;;;;;;22.00;54.90;;;;;;4975271;28;19910;-79
2021/12/19 12:39:20;;;;;;;;;;;22.00;54.90;;;;;;4976155;28;19957;-79
2021/12/19 12:44:16;;;;;;;;;;;22.00;55.00;;;;;;4958724;28;20021;-79
2021/12/19 12:46:43;;;;;;;;;;;22.00;55.00;;;;;;4975706;28;19918;-79
2021/12/19 12:49:34;;;;;;;;;;;22.00;54.90;;;;;;4958673;28;20363;-78
2021/12/19 12:52:05;;;;;;;;;;;22.00;54.90;;;;;;4974679;28;19910;-79
2021/12/19 12:54:36;;;;;;;;;;;22.00;55.00;;;;;;4974514;28;19916;-78
2021/12/19 12:57:07;;;;;;;;;;;22.00;54.90;;;;;;4975772;28;19910;-78
2021/12/19 12:59:35;;;;;;;;;;;22.00;54.90;;;;;;4975625;28;20386;-78
2021/12/19 13:02:15;;;;;;;;;;;22.00;54.90;;;;;;4974475;28;19910;-79
2021/12/19 13:04:42;;;;;;;;;;;22.00;54.80;;;;;;4974168;28;20351;-78
2021/12/19 13:07:09;;;;;;;;;;;22.00;54.70;;;;;;4975526;28;19910;-79
2021/12/19 13:09:37;;;;;;;;;;;22.00;54.80;;;;;;4975662;28;19913;-79
2021/12/19 13:12:08;;;;;;;;;;;22.00;54.70;;;;;;4974098;28;20000;-79
2021/12/19 13:14:42;;;;;;;;;;;22.10;54.80;;;;;;4974990;28;19914;-79
2021/12/19 13:17:07;;;;;;;;;;;22.10;54.70;;;;;;4974180;28;19969;-79
2021/12/19 13:19:35;;;;;;;;;;;22.10;54.70;;;;;;4974049;28;19910;-79
2021/12/19 13:22:01;;;;;;;;;;;22.10;54.70;;;;;;4975248;28;19918;-79
2021/12/19 13:24:27;;;;;;;;;;;22.10;54.70;;;;;;4973728;28;19937;-79
2021/12/19 13:27:02;;;;;;;;;;;22.10;54.70;;;;;;4957555;28;19918;-79
2021/12/19 13:29:29;;;;;;;;;;;22.10;54.70;;;;;;4974504;28;19913;-78
2021/12/19 13:31:55;;;;;;;;;;;22.10;54.80;;;;;;4973777;28;20005;-80
2021/12/19 13:34:21;;;;;;;;;;;22.10;54.80;;;;;;4957739;28;20041;-77
2021/12/19 13:37:06;;;;;;;;;;;22.00;54.80;;;;;;4973960;28;20467;-78
2021/12/19 13:39:33;;;;;;;;;;;22.00;54.80;;;;;;4973539;28;20382;-77
2021/12/19 13:42:07;;;;;;;;;;;22.00;54.80;;;;;;4974844;28;19910;-77
2021/12/19 13:44:32;;;;;;;;;;;22.00;54.80;;;;;;4974665;28;20432;-77
2021/12/19 13:46:58;;;;;;;;;;;22.00;54.80;;;;;;4973554;28;19914;-77
2021/12/19 13:49:24;;;;;;;;;;;22.00;54.80;;;;;;4973941;28;19910;-77
2021/12/19 13:51:49;;;;;;;;;;;22.00;54.80;;;;;;4973474;28;19917;-78
2021/12/19 13:54:15;;;;;;;;;;;22.00;54.80;;;;;;4973343;28;19910;-79
2021/12/19 13:56:41;;;;;;;;;;;22.00;54.80;;;;;;4974487;28;20280;-78
2021/12/19 13:59:17;;;;;;;;;;;22.00;54.80;;;;;;4973280;28;20358;-78
2021/12/19 14:01:42;;;;;;;;;;;22.00;54.80;;;;;;4973279;28;19917;-78
2021/12/19 14:04:14;;;;;;;;;;;22.00;54.80;;;;;;4974576;28;20291;-78
2021/12/19 14:06:41;;;;;;;;;;;22.00;54.80;;;;;;4973060;28;20316;-77
2021/12/19 14:09:07;;;;;;;;;;;22.00;54.80;;;;;;4974479;28;19917;-78
2021/12/19 14:11:34;;;;;;;;;;;22.00;54.70;;;;;;4974557;28;19992;-78
2021/12/19 14:14:11;;;;;;;;;;;22.00;54.70;;;;;;4957190;28;19964;-79
2021/12/19 14:16:44;;;;;;;;;;;22.00;54.80;;;;;;4957058;28;19918;-79
2021/12/19 14:19:19;;;;;;;;;;;22.10;54.80;;;;;;4972965;28;19958;-79
2021/12/19 14:21:46;;;;;;;;;;;22.00;54.70;;;;;;4972906;28;19942;-79
2021/12/19 14:24:11;;;;;;;;;;;22.10;54.70;;;;;;4973018;28;19922;-79
2021/12/19 14:26:37;;;;;;;;;;;22.10;54.70;;;;;;4972599;28;20276;-79
2021/12/19 14:29:03;;;;;;;;;;;22.10;54.60;;;;;;4973991;28;19957;-79
2021/12/19 14:31:49;;;;;;;;;;;22.10;54.60;;;;;;4972797;28;20293;-79
2021/12/19 14:34:25;;;;;;;;;;;22.10;54.50;;;;;;4972595;28;19957;-79
2021/12/19 14:36:51;;;;;;;;;;;22.10;54.60;;;;;;4973862;28;19914;-78
2021/12/19 14:39:26;;;;;;;;;;;22.10;54.50;;;;;;4973263;28;19910;-79
2021/12/19 14:42:05;;;;;;;;;;;22.10;54.50;;;;;;4972660;28;20281;-79
2021/12/19 14:44:30;;;;;;;;;;;22.10;54.60;;;;;;4973662;28;19994;-79
2021/12/19 14:46:56;;;;;;;;;;;22.10;54.60;;;;;;4973664;28;20016;-80
2021/12/19 14:49:22;;;;;;;;;;;22.10;54.60;;;;;;4956471;28;19968;-80
2021/12/19 14:51:56;;;;;;;;;;;22.10;54.70;;;;;;4956024;28;20394;-80
2021/12/19 14:54:22;;;;;;;;;;;22.10;54.70;;;;;;4972129;28;19910;-79
2021/12/19 14:56:48;;;;;;;;;;;22.10;54.80;;;;;;4972342;28;19914;-79
2021/12/19 14:59:17;;;;;;;;;;;22.00;54.80;;;;;;4956074;28;20438;-79
2021/12/19 15:01:43;;;;;;;;;;;22.10;54.70;;;;;;4956016;28;19978;-79
2021/12/19 15:04:09;;;;;;;;;;;22.10;54.70;;;;;;4972315;28;19914;-79
2021/12/19 15:06:39;;;;;;;;;;;22.10;54.80;;;;;;4955572;28;19964;-80
2021/12/19 15:09:07;;;;;;;;;;;22.10;54.70;;;;;;4972402;28;19964;-79
2021/12/19 15:11:33;;;;;;;;;;;22.00;54.70;;;;;;4972006;28;19946;-79
2021/12/19 15:13:59;;;;;;;;;;;22.10;54.80;;;;;;4956171;28;19910;-79
2021/12/19 15:16:24;;;;;;;;;;;22.10;54.80;;;;;;4971790;28;20275;-79
2021/12/19 15:18:50;;;;;;;;;;;22.10;54.80;;;;;;4973256;28;20255;-79
2021/12/19 15:21:16;;;;;;;;;;;22.10;54.70;;;;;;4972038;28;19971;-79
2021/12/19 15:23:42;;;;;;;;;;;22.10;54.70;;;;;;4971949;28;19941;-78
2021/12/19 15:26:14;;;;;;;;;;;22.10;54.80;;;;;;4972715;28;20057;-78
2021/12/19 15:28:40;;;;;;;;;;;22.10;54.70;;;;;;4956107;28;19917;-78